Time;durP1;ratioP1;P1;durP2;ratioP2;P2;SDS_P1;SDS_P2;PMS_P1;PMS_P2;Temp;Humidity;BMP_temperature;BMP_pressure;BME280_temperature;BME280_humidity;BME280_pressure;Samples;Min_cycle;Max_cycle;Signal;HPM_P1;HPM_P2
2023/04/03 00:01:53;;;;;;;4.83;4.07;;;;;;;8.42;49.06;99528.81;7076990;27;20201;-77
2023/04/03 00:05:16;;;;;;;4.07;3.67;;;;;;;9.38;46.91;99512.91;7082226;27;20346;-76
2023/04/03 00:08:38;;;;;;;4.67;3.40;;;;;;;9.31;47.57;99520.03;7082321;27;20226;-77
2023/04/03 00:11:59;;;;;;;6.33;3.63;;;;;;;8.35;48.01;99522.44;7081232;27;20205;-75
2023/04/03 00:15:21;;;;;;;7.80;3.80;;;;;;;8.92;48.17;99513.94;7081284;27;20665;-76
2023/04/03 00:18:43;;;;;;;4.40;4.00;;;;;;;8.86;48.05;99506.59;7081809;27;20192;-75
2023/04/03 00:22:06;;;;;;;3.87;3.37;;;;;;;8.84;47.80;99507.78;7081445;27;20205;-77
2023/04/03 00:25:27;;;;;;;3.90;3.37;;;;;;;9.04;47.69;99521.41;7081975;27;20236;-76
2023/04/03 00:28:49;;;;;;;4.00;3.70;;;;;;;8.93;48.27;99528.19;7081966;27;20313;-78
2023/04/03 00:32:10;;;;;;;4.10;3.70;;;;;;;9.26;47.90;99522.44;7081121;27;20688;-75
2023/04/03 00:35:32;;;;;;;4.20;3.80;;;;;;;8.67;48.90;99522.31;7081731;27;20210;-75
2023/04/03 00:38:55;;;;;;;5.37;4.17;;;;;;;8.93;48.18;99521.81;7081673;27;20203;-76
2023/04/03 00:42:17;;;;;;;4.23;3.83;;;;;;;8.99;48.26;99528.34;7080762;27;20202;-76
2023/04/03 00:45:39;;;;;;;4.30;3.90;;;;;;;8.72;49.00;99533.38;7081069;27;20208;-76
2023/04/03 00:49:01;;;;;;;4.50;3.90;;;;;;;8.63;48.53;99526.34;7081461;27;20226;-78
2023/04/03 00:52:25;;;;;;;4.13;3.73;;;;;;;8.84;48.77;99537.34;7080196;27;20260;-76
2023/04/03 00:55:49;;;;;;;5.40;3.77;;;;;;;8.98;48.26;99527.50;7081034;27;20203;-76
2023/04/03 00:59:12;;;;;;;3.73;3.30;;;;;;;9.45;47.01;99521.97;7081322;27;20562;-76
2023/04/03 01:02:34;;;;;;;4.07;3.77;;;;;;;8.95;48.43;99527.00;7080310;27;20276;-78
2023/04/03 01:05:55;;;;;;;4.07;3.33;;;;;;;9.06;47.99;99515.84;7080491;27;20231;-76
2023/04/03 01:09:17;;;;;;;4.07;3.50;;;;;;;8.90;48.32;99525.88;7080717;27;20234;-76
2023/04/03 01:12:41;;;;;;;4.80;3.47;;;;;;;8.78;48.48;99532.69;7079123;27;20226;-77
2023/04/03 01:16:03;;;;;;;3.97;3.67;;;;;;;8.92;48.44;99527.38;7080868;27;20192;-76
2023/04/03 01:19:25;;;;;;;4.77;4.20;;;;;;;8.87;48.85;99526.22;7080524;27;20202;-76
2023/04/03 01:22:53;;;;;;;4.00;3.70;;;;;;;8.87;49.01;99526.22;7079372;27;20229;-76
2023/04/03 01:26:15;;;;;;;5.67;4.20;;;;;;;9.20;47.74;99525.84;7080678;27;20195;-76
2023/04/03 01:29:38;;;;;;;4.67;4.27;;;;;;;8.74;49.28;99526.81;7079559;27;20226;-76
2023/04/03 01:33:01;;;;;;;5.13;3.63;;;;;;;8.16;49.33;99412.69;7080271;27;20844;-76
2023/04/03 01:36:24;;;;;;;4.60;4.23;;;;;;;8.97;48.55;99529.53;7080415;27;20505;-76
2023/04/03 01:39:45;;;;;;;5.10;4.63;;;;;;;8.70;48.97;99527.31;7079581;27;20297;-76
2023/04/03 01:43:07;;;;;;;5.43;4.93;;;;;;;9.16;47.85;99535.31;7080214;27;20286;-77
2023/04/03 01:46:28;;;;;;;4.43;3.53;;;;;;;8.25;49.83;99532.56;7080177;28;20621;-76
2023/04/03 01:49:51;;;;;;;4.00;3.70;;;;;;;9.01;47.68;99526.31;7079362;28;20231;-76
2023/04/03 01:53:14;;;;;;;4.10;3.80;;;;;;;8.83;48.94;99527.59;7079630;28;20283;-76
2023/04/03 01:56:35;;;;;;;4.13;3.73;;;;;;;8.69;49.07;99547.16;7079601;28;20206;-77
2023/04/03 01:59:57;;;;;;;4.57;3.87;;;;;;;8.82;48.54;99532.13;7079355;28;20258;-75
2023/04/03 02:03:19;;;;;;;4.00;3.60;;;;;;;8.67;49.38;99547.31;7074535;28;20275;-76
2023/04/03 02:06:41;;;;;;;4.47;3.97;;;;;;;8.83;49.54;99546.44;7079812;28;20642;-76
2023/04/03 02:10:03;;;;;;;4.13;3.73;;;;;;;8.98;48.91;99537.44;7078865;28;20255;-75
2023/04/03 02:13:25;;;;;;;5.03;4.53;;;;;;;8.70;48.79;99495.91;7078783;28;20223;-75
2023/04/03 02:16:46;;;;;;;4.30;3.90;;;;;;;9.02;47.68;99539.59;7082543;27;20250;-75
2023/04/03 02:20:09;;;;;;;3.97;3.63;;;;;;;9.07;47.51;99539.88;7084629;27;20199;-77
2023/04/03 02:23:31;;;;;;;4.00;3.70;;;;;;;9.26;47.16;99535.88;7085162;27;20380;-79
2023/04/03 02:26:53;;;;;;;4.90;4.20;;;;;;;9.19;47.19;99534.94;7085269;27;20208;-75
2023/04/03 02:30:15;;;;;;;4.30;3.90;;;;;;;9.09;47.14;99534.34;7084501;27;20700;-77
2023/04/03 02:33:37;;;;;;;3.60;3.30;;;;;;;8.93;47.17;99547.03;7084987;27;20307;-78
2023/04/03 02:36:58;;;;;;;6.27;3.67;;;;;;;8.90;46.00;99550.09;7084889;27;20685;-77
2023/04/03 02:40:21;;;;;;;5.47;4.20;;;;;;;8.96;45.72;99538.63;7084401;27;20263;-76
2023/04/03 02:43:42;;;;;;;3.70;3.40;;;;;;;8.93;45.94;99551.38;7084742;27;20223;-76
2023/04/03 02:47:04;;;;;;;4.07;3.67;;;;;;;9.03;45.42;99535.88;7084774;27;20736;-76
2023/04/03 02:50:26;;;;;;;3.43;3.13;;;;;;;9.36;44.95;99552.63;7083771;27;20328;-76
2023/04/03 02:53:47;;;;;;;3.70;3.40;;;;;;;9.33;43.79;99553.00;7084493;27;20245;-79
2023/04/03 02:57:10;;;;;;;4.20;3.47;;;;;;;9.26;44.93;99550.19;7084505;27;20262;-76
2023/04/03 03:00:31;;;;;;;3.80;3.50;;;;;;;9.43;44.36;99553.59;7083271;27;20202;-78
2023/04/03 03:03:53;;;;;;;3.50;3.20;;;;;;;9.32;44.55;99543.22;7083712;27;20254;-76
2023/04/03 03:07:14;;;;;;;4.00;3.60;;;;;;;9.09;45.04;99553.19;7084152;27;20265;-76
2023/04/03 03:10:36;;;;;;;4.57;3.73;;;;;;;9.39;44.77;99554.97;7083421;27;20228;-76
2023/04/03 03:13:59;;;;;;;3.60;3.23;;;;;;;9.29;44.25;99543.59;7083024;27;20291;-76
2023/04/03 03:17:20;;;;;;;3.60;3.30;;;;;;;8.86;44.96;99559.50;7083427;27;20184;-75
2023/04/03 03:20:42;;;;;;;3.70;3.40;;;;;;;9.22;45.02;99559.63;7083155;27;20269;-78
2023/04/03 03:24:03;;;;;;;3.37;3.00;;;;;;;9.56;44.16;99546.59;7083646;27;20298;-76
2023/04/03 03:27:25;;;;;;;6.23;3.10;;;;;;;9.54;44.29;99547.78;7082565;27;20263;-76
2023/04/03 03:30:48;;;;;;;3.57;3.27;;;;;;;9.45;44.30;99547.00;7082560;27;20310;-76
2023/04/03 03:34:09;;;;;;;3.47;3.17;;;;;;;9.59;44.07;99548.09;7082973;27;20276;-76
2023/04/03 03:37:31;;;;;;;3.73;3.20;;;;;;;9.57;44.22;99533.97;7082916;27;20259;-76
2023/04/03 03:40:52;;;;;;;3.77;3.47;;;;;;;9.74;43.95;99530.13;7082634;27;20198;-75
2023/04/03 03:44:14;;;;;;;3.73;3.33;;;;;;;9.75;43.95;99537.19;7082745;27;20226;-76
2023/04/03 03:47:37;;;;;;;2.97;2.77;;;;;;;9.82;43.63;99538.13;7083129;27;20257;-76
2023/04/03 03:50:58;;;;;;;3.80;3.50;;;;;;;9.61;44.43;99538.81;7081737;27;20224;-75
2023/04/03 03:54:20;;;;;;;3.63;3.33;;;;;;;9.72;44.75;99543.75;7082832;27;20258;-76
2023/04/03 03:57:41;;;;;;;4.03;3.60;;;;;;;9.94;43.45;99539.34;7082894;27;20572;-76
2023/04/03 04:01:03;;;;;;;3.70;3.40;;;;;;;9.76;44.45;99542.41;7080780;27;20207;-75
2023/04/03 04:04:26;;;;;;;3.53;3.23;;;;;;;9.89;43.83;99542.59;7077450;27;20287;-75
2023/04/03 04:07:47;;;;;;;6.60;3.83;;;;;;;9.79;43.37;99544.72;7081723;27;20255;-75
2023/04/03 04:11:09;;;;;;;5.53;3.20;;;;;;;9.64;43.86;99537.63;7081292;27;20568;-76
2023/04/03 04:14:31;;;;;;;4.53;3.40;;;;;;;9.88;43.40;99538.25;7081025;27;20238;-75
2023/04/03 04:17:53;;;;;;;3.37;3.07;;;;;;;9.86;43.96;99544.81;7081963;27;20188;-78
2023/04/03 04:21:15;;;;;;;5.20;4.07;;;;;;;9.90;43.85;99527.25;7080620;27;20236;-78
2023/04/03 04:24:37;;;;;;;3.80;3.50;;;;;;;9.82;44.43;99532.72;7081303;27;20649;-76
2023/04/03 04:27:58;;;;;;;3.97;3.63;;;;;;;9.72;44.18;99519.53;7081278;27;20199;-78
2023/04/03 04:31:20;;;;;;;5.13;3.70;;;;;;;9.46;45.36;99529.84;7080735;27;20648;-76
2023/04/03 04:34:41;;;;;;;4.00;3.30;;;;;;;9.37;44.89;99539.00;7080798;27;20230;-76
2023/04/03 04:38:04;;;;;;;3.70;3.40;;;;;;;9.55;44.85;99539.53;7081137;27;20264;-77
2023/04/03 04:41:26;;;;;;;4.33;3.40;;;;;;;9.75;44.09;99543.38;7080424;27;20297;-76
2023/04/03 04:44:47;;;;;;;4.17;3.67;;;;;;;9.62;43.78;99540.47;7080650;27;20230;-75
2023/04/03 04:48:09;;;;;;;4.07;3.50;;;;;;;9.64;43.64;99538.44;7080685;27;20203;-79
2023/04/03 04:51:30;;;;;;;4.47;3.47;;;;;;;9.49;43.44;99542.09;7080016;27;20224;-76
2023/04/03 04:54:53;;;;;;;3.87;3.50;;;;;;;9.42;44.29;99542.00;7077383;27;20233;-77
2023/04/03 04:58:15;;;;;;;3.50;3.30;;;;;;;9.57;43.93;99550.94;7065223;27;20211;-75
2023/04/03 05:01:36;;;;;;;4.83;3.83;;;;;;;9.66;44.55;99547.19;7079273;27;20218;-76
2023/04/03 05:04:58;;;;;;;8.33;5.93;;;;;;;9.36;45.20;99541.88;7079626;27;20249;-77
2023/04/03 05:08:19;;;;;;;7.97;5.40;;;;;;;9.83;44.00;99558.63;7073933;27;20207;-77
2023/04/03 05:11:42;;;;;;;4.90;4.50;;;;;;;9.80;44.39;99561.72;7078821;27;20754;-75
2023/04/03 05:15:05;;;;;;;4.57;4.17;;;;;;;9.59;45.02;99543.56;7079128;27;20253;-80
2023/04/03 05:18:26;;;;;;;4.07;3.67;;;;;;;9.44;46.01;99556.09;7079578;27;20340;-76
2023/04/03 05:21:48;;;;;;;4.03;3.63;;;;;;;9.21;45.57;99570.59;7079453;27;20542;-75
2023/04/03 05:25:10;;;;;;;3.70;3.40;;;;;;;9.47;45.25;99574.59;7080159;27;20265;-76
2023/04/03 05:28:33;;;;;;;16.97;11.20;;;;;;;9.68;44.29;99560.47;7077562;27;20196;-75
2023/04/03 05:31:55;;;;;;;8.13;4.63;;;;;;;8.71;45.90;99580.09;7051271;27;20287;-76
2023/04/03 05:35:16;;;;;;;5.77;4.90;;;;;;;9.25;44.66;99580.81;7073562;27;20685;-75
2023/04/03 05:38:38;;;;;;;6.13;3.70;;;;;;;9.37;44.92;99590.13;7079741;27;20346;-75
2023/04/03 05:42:00;;;;;;;5.37;4.30;;;;;;;9.83;43.28;99577.50;7079330;27;20208;-76
2023/04/03 05:45:23;;;;;;;4.43;4.03;;;;;;;9.73;43.32;99577.75;7079367;27;20230;-76
2023/04/03 05:48:45;;;;;;;6.73;3.50;;;;;;;9.64;42.69;99580.69;7078904;28;20211;-76
2023/04/03 05:52:06;;;;;;;3.77;3.43;;;;;;;10.13;41.25;99571.19;7086127;27;20215;-75
2023/04/03 05:55:28;;;;;;;3.50;3.20;;;;;;;9.85;41.54;99587.06;7088948;27;20649;-75
2023/04/03 05:58:49;;;;;;;4.67;3.90;;;;;;;10.03;40.56;99589.44;7089033;27;20210;-76
2023/04/03 06:02:15;;;;;;;3.40;3.10;;;;;;;8.41;43.35;99608.56;7087499;27;20347;-76
2023/04/03 06:05:36;;;;;;;3.60;3.10;;;;;;;9.05;42.37;99602.94;7088669;27;20666;-77
2023/04/03 06:08:58;;;;;;;4.10;3.10;;;;;;;9.30;41.94;99599.09;7088529;27;20235;-78
2023/04/03 06:12:19;;;;;;;4.20;3.33;;;;;;;9.71;42.22;99600.50;7088132;27;20294;-77
2023/04/03 06:15:41;;;;;;;3.30;3.00;;;;;;;9.97;41.13;99591.00;7088778;27;20208;-76
2023/04/03 06:19:04;;;;;;;4.63;3.33;;;;;;;9.78;41.60;99604.13;7087998;27;20255;-78
2023/04/03 06:22:29;;;;;;;3.37;3.10;;;;;;;9.63;41.26;99600.56;7088026;27;20272;-76
2023/04/03 06:25:51;;;;;;;3.20;2.90;;;;;;;9.94;41.98;99615.63;7088911;27;20184;-79
2023/04/03 06:29:12;;;;;;;3.30;3.10;;;;;;;9.29;43.03;99625.19;7068839;27;20398;-76
2023/04/03 06:32:34;;;;;;;3.27;3.07;;;;;;;9.33;43.54;99618.41;7057126;28;20228;-78
2023/04/03 06:36:00;;;;;;;5.03;3.20;;;;;;;9.75;41.75;99605.31;7060341;28;20204;-77
2023/04/03 06:39:23;;;;;;;4.00;3.00;;;;;;;10.08;41.34;99606.75;7059896;28;20208;-78
2023/04/03 06:42:44;;;;;;;5.47;3.10;;;;;;;9.61;42.45;99622.28;7081946;27;20220;-76
2023/04/03 06:46:06;;;;;;;4.03;3.20;;;;;;;9.44;42.96;99625.22;7088259;27;20292;-77
2023/04/03 06:49:28;;;;;;;6.47;3.30;;;;;;;9.91;43.11;99625.91;7088047;27;20223;-76
2023/04/03 06:52:51;;;;;;;4.10;3.00;;;;;;;9.32;43.03;99616.75;7073270;27;20230;-78
2023/04/03 06:56:13;;;;;;;3.53;3.10;;;;;;;8.57;45.00;99626.50;7059610;28;20247;-76
2023/04/03 06:59:35;;;;;;;5.47;3.60;;;;;;;8.20;46.69;99639.69;7058900;28;20357;-79
2023/04/03 07:02:57;;;;;;;3.17;2.87;;;;;;;9.08;44.96;99634.84;7056713;28;20701;-78
2023/04/03 07:06:19;;;;;;;3.60;3.30;;;;;;;9.47;43.95;99641.03;7054875;28;20259;-77
2023/04/03 07:09:43;;;;;;;3.67;3.17;;;;;;;9.86;43.24;99636.41;7067349;27;20234;-77
2023/04/03 07:13:04;;;;;;;3.37;3.07;;;;;;;9.27;43.57;99626.38;7083340;27;20229;-76
2023/04/03 07:16:26;;;;;;;4.20;3.20;;;;;;;9.66;43.58;99643.25;7083039;27;20227;-76
2023/04/03 07:19:47;;;;;;;3.53;3.23;;;;;;;10.07;42.70;99633.88;7082947;27;20206;-77
2023/04/03 07:23:09;;;;;;;3.30;3.00;;;;;;;9.79;42.58;99630.88;7082800;27;20275;-77
2023/04/03 07:26:32;;;;;;;4.03;3.07;;;;;;;9.69;43.92;99634.84;7082919;27;20255;-76
2023/04/03 07:29:55;;;;;;;3.33;3.07;;;;;;;9.29;44.32;99651.25;7082516;27;20311;-78
2023/04/03 07:33:19;;;;;;;4.30;3.40;;;;;;;9.12;44.99;99641.56;7072017;27;20256;-77
2023/04/03 07:36:40;;;;;;;4.87;3.20;;;;;;;8.98;45.54;99636.94;7075515;27;20211;-76
2023/04/03 07:40:03;;;;;;;3.33;3.03;;;;;;;9.35;44.38;99650.53;7075397;27;20199;-78
2023/04/03 07:43:26;;;;;;;3.60;3.20;;;;;;;9.16;44.94;99648.28;7082238;27;20298;-76
2023/04/03 07:46:48;;;;;;;4.83;2.97;;;;;;;8.95;45.59;99650.72;7082282;27;20341;-76
2023/04/03 07:50:10;;;;;;;3.57;3.03;;;;;;;9.71;43.38;99649.81;7081085;27;20216;-77
2023/04/03 07:53:32;;;;;;;4.93;3.60;;;;;;;9.94;43.16;99639.03;7081993;27;20678;-76
2023/04/03 07:56:53;;;;;;;4.93;3.03;;;;;;;10.29;42.64;99646.50;7082205;27;20204;-76
2023/04/03 08:00:17;;;;;;;3.80;3.10;;;;;;;10.48;42.52;99654.03;7076483;27;20689;-77
2023/04/03 08:03:39;;;;;;;3.23;2.93;;;;;;;9.60;44.26;99657.44;7056982;27;20216;-77
2023/04/03 08:07:00;;;;;;;4.70;3.00;;;;;;;9.72;43.85;99664.09;7077845;27;20252;-79
2023/04/03 08:10:22;;;;;;;3.40;3.10;;;;;;;10.06;43.57;99660.00;7072062;27;20271;-76
2023/04/03 08:13:43;;;;;;;3.50;3.20;;;;;;;10.21;43.84;99662.75;7081198;27;20276;-76
2023/04/03 08:17:09;;;;;;;3.27;2.97;;;;;;;9.99;42.82;99660.88;7081709;27;20748;-82
2023/04/03 08:20:30;;;;;;;4.37;3.20;;;;;;;9.84;43.89;99663.50;7081001;27;20622;-77
2023/04/03 08:23:52;;;;;;;3.50;2.97;;;;;;;9.59;46.26;99667.41;7052798;28;20361;-77
2023/04/03 08:27:13;;;;;;;3.70;3.40;;;;;;;11.51;40.81;99661.91;7053226;28;20306;-78
2023/04/03 08:30:35;;;;;;;3.57;3.27;;;;;;;11.40;40.58;99614.63;7051836;28;20235;-77
2023/04/03 08:33:58;;;;;;;4.10;3.50;;;;;;;9.35;44.34;99669.38;7052952;28;20704;-77
2023/04/03 08:37:20;;;;;;;3.33;3.03;;;;;;;9.96;43.77;99662.06;7052536;28;20200;-77
2023/04/03 08:40:42;;;;;;;3.53;3.10;;;;;;;9.31;44.23;99674.28;7051527;28;20203;-76
2023/04/03 08:44:11;;;;;;;5.80;3.43;;;;;;;9.62;45.27;99667.03;7066368;27;20625;-77
2023/04/03 08:47:39;;;;;;;5.00;3.30;;;;;;;11.20;41.86;99666.69;7072774;27;20203;-76
2023/04/03 08:51:05;;;;;;;4.00;3.60;;;;;;;10.61;40.60;99624.56;7066172;27;20634;-76
2023/04/03 08:54:31;;;;;;;3.83;3.00;;;;;;;10.95;41.85;99647.28;7077807;27;20223;-79
2023/04/03 08:57:59;;;;;;;3.60;3.07;;;;;;;11.49;39.28;99658.53;7074250;27;20257;-79
2023/04/03 09:01:24;;;;;;;4.33;3.17;;;;;;;10.88;39.50;99669.78;7079209;27;20218;-78
2023/04/03 09:04:46;;;;;;;5.37;3.53;;;;;;;10.40;40.12;99670.31;7080178;27;20720;-77
2023/04/03 09:08:17;;;;;;;3.80;3.40;;;;;;;11.03;39.99;99660.66;7079819;27;20244;-78
2023/04/03 09:11:46;;;;;;;3.43;3.13;;;;;;;10.26;40.58;99627.97;7081197;27;20777;-77
2023/04/03 09:15:16;;;;;;;5.30;3.23;;;;;;;11.40;38.86;99659.69;7082607;27;20233;-78
2023/04/03 09:18:42;;;;;;;2.77;2.50;;;;;;;10.15;40.37;99669.69;7080102;27;20346;-78
2023/04/03 09:22:14;;;;;;;2.97;2.77;;;;;;;9.54;41.85;99669.78;7082627;27;20239;-81
2023/04/03 09:25:38;;;;;;;4.53;2.60;;;;;;;10.82;39.81;99654.34;7078766;27;20208;-79
2023/04/03 09:29:03;;;;;;;4.00;3.27;;;;;;;9.80;44.76;99662.19;7080929;27;20199;-78
2023/04/03 09:32:28;;;;;;;4.27;2.70;;;;;;;10.63;41.20;99669.22;7074382;27;20685;-79
2023/04/03 09:35:50;;;;;;;4.40;3.10;;;;;;;11.99;39.98;99661.22;7082161;27;20282;-80
2023/04/03 09:39:15;;;;;;;3.37;2.70;;;;;;;11.70;40.20;99655.91;7082978;27;20276;-77
2023/04/03 09:42:41;;;;;;;4.13;2.93;;;;;;;10.84;40.59;99660.38;7081179;27;20222;-77
2023/04/03 09:46:26;;;;;;;2.87;2.67;;;;;;;12.17;41.00;99650.78;7080131;27;20191;-77
2023/04/03 09:49:47;;;;;;;3.57;2.77;;;;;;;12.34;38.46;99654.88;7073653;28;20280;-78
2023/04/03 09:53:28;;;;;;;3.10;2.80;;;;;;;11.95;37.67;99662.63;7087214;28;20264;-76
2023/04/03 09:56:51;;;;;;;3.37;2.73;;;;;;;11.53;38.47;99673.34;7087137;28;20244;-83
2023/04/03 10:00:23;;;;;;;3.73;2.80;;;;;;;10.41;40.86;99663.91;7076623;28;20271;-78
2023/04/03 10:03:46;;;;;;;4.87;2.97;;;;;;;10.71;40.74;99674.53;7083269;28;20215;-81
2023/04/03 10:07:33;;;;;;;4.57;3.00;;;;;;;9.23;42.27;99676.16;7085591;28;20565;-77
2023/04/03 10:11:23;;;;;;;3.70;2.83;;;;;;;10.46;41.86;99658.78;7079941;28;20280;-78
2023/04/03 10:14:56;;;;;;;3.03;2.80;;;;;;;11.31;40.12;99655.41;7013307;28;20815;-77
2023/04/03 10:18:30;;;;;;;3.30;2.70;;;;;;;12.22;39.55;99643.72;7059571;28;20263;-78
2023/04/03 10:21:56;;;;;;;2.87;2.67;;;;;;;11.81;38.50;99647.31;7079093;28;20192;-77
2023/04/03 10:25:23;;;;;;;2.97;2.67;;;;;;;12.51;37.76;99645.44;7067146;28;20227;-78
2023/04/03 10:28:48;;;;;;;4.03;2.87;;;;;;;12.28;38.35;99642.13;7078767;28;20203;-78
2023/04/03 10:32:28;;;;;;;4.17;2.70;;;;;;;12.12;38.46;99593.75;7076425;28;20267;-78
2023/04/03 10:36:00;;;;;;;3.13;2.83;;;;;;;12.91;36.37;99637.38;7077986;27;20717;-78
2023/04/03 10:39:28;;;;;;;2.67;2.47;;;;;;;12.27;36.42;99635.88;7084178;27;20228;-78
2023/04/03 10:42:52;;;;;;;3.97;2.70;;;;;;;12.16;37.75;99624.78;7077395;27;20299;-78
2023/04/03 10:46:17;;;;;;;5.93;2.73;;;;;;;12.69;37.13;99638.47;7083679;27;20264;-78
2023/04/03 10:49:46;;;;;;;5.33;2.47;;;;;;;11.92;36.69;99642.22;7083671;27;20192;-78
2023/04/03 10:53:17;;;;;;;2.80;2.60;;;;;;;11.44;37.82;99644.75;7083204;27;20252;-78
2023/04/03 10:56:40;;;;;;;2.47;2.27;;;;;;;11.71;36.19;99635.97;7073860;27;20253;-77
2023/04/03 11:00:05;;;;;;;2.57;2.37;;;;;;;11.55;33.65;99623.53;7054365;28;20204;-77
2023/04/03 11:03:31;;;;;;;2.67;2.27;;;;;;;12.38;34.01;99638.06;7080057;27;20697;-77
2023/04/03 11:06:58;;;;;;;3.40;2.80;;;;;;;11.82;33.25;99636.31;7084769;27;20566;-77
2023/04/03 11:10:24;;;;;;;3.50;2.40;;;;;;;10.96;33.73;99623.81;7053280;28;20218;-78
2023/04/03 11:13:50;;;;;;;2.60;2.30;;;;;;;11.51;34.03;99627.63;7053960;28;20251;-76
2023/04/03 11:17:21;;;;;;;2.60;2.40;;;;;;;11.68;33.40;99625.56;7055349;27;20260;-77
2023/04/03 11:20:49;;;;;;;3.13;2.17;;;;;;;11.49;33.60;99624.28;7054866;28;20200;-77
2023/04/03 11:24:18;;;;;;;2.70;2.17;;;;;;;10.96;35.64;99632.78;7060297;27;20834;-77
2023/04/03 11:27:45;;;;;;;2.40;2.17;;;;;;;10.78;33.89;99631.47;7081989;27;20203;-76
2023/04/03 11:31:20;;;;;;;2.67;2.33;;;;;;;10.96;35.32;99626.53;7080931;27;20239;-77
2023/04/03 11:34:44;;;;;;;3.13;2.40;;;;;;;12.43;33.54;99622.06;7082110;27;20227;-77
2023/04/03 11:38:07;;;;;;;2.47;2.30;;;;;;;11.42;32.35;99615.28;7082050;27;20600;-77
2023/04/03 11:41:30;;;;;;;2.53;2.33;;;;;;;11.50;32.73;99607.03;7081241;27;20290;-76
2023/04/03 11:45:35;;;;;;;2.60;2.40;;;;;;;11.08;34.81;99616.91;7080178;27;20510;-77
2023/04/03 11:48:56;;;;;;;2.50;2.30;;;;;;;11.19;34.58;99597.53;7080626;27;20204;-77
2023/04/03 11:52:51;;;;;;;2.60;2.40;;;;;;;11.30;34.05;99619.50;7076491;27;20220;-77
2023/04/03 11:56:34;;;;;;;3.07;2.70;;;;;;;12.16;33.68;99609.38;7053701;28;20293;-77
2023/04/03 11:59:57;;;;;;;2.53;2.33;;;;;;;11.83;34.17;99591.19;7054019;27;20236;-78
2023/04/03 12:04:00;;;;;;;4.13;2.57;;;;;;;12.33;33.58;99602.63;7053621;28;20299;-76
2023/04/03 12:07:22;;;;;;;3.13;2.40;;;;;;;12.11;33.54;99603.72;7004553;28;20212;-76
2023/04/03 12:11:17;;;;;;;3.77;2.63;;;;;;;11.29;35.04;99606.19;7060196;27;20250;-76
2023/04/03 12:14:38;;;;;;;2.30;2.10;;;;;;;12.11;34.26;99581.25;7081503;27;20223;-77
2023/04/03 12:18:48;;;;;;;3.03;2.50;;;;;;;12.33;33.28;99602.63;7080795;27;20203;-77
2023/04/03 12:22:14;;;;;;;2.60;2.40;;;;;;;10.43;35.86;99605.22;7051219;27;20288;-76
2023/04/03 12:25:50;;;;;;;2.77;2.57;;;;;;;11.15;35.06;99598.97;7061043;27;20195;-75
2023/04/03 12:29:17;;;;;;;3.47;2.50;;;;;;;11.75;34.86;99607.56;7056893;27;20204;-76
2023/04/03 12:32:49;;;;;;;4.00;3.33;;;;;;;12.60;33.08;99584.72;7051738;28;20271;-76
2023/04/03 12:36:14;;;;;;;2.37;2.17;;;;;;;12.30;31.91;99594.09;7052476;28;20204;-76
2023/04/03 12:39:51;;;;;;;3.57;2.63;;;;;;;12.58;31.93;99592.22;7051593;28;20237;-76
2023/04/03 12:43:26;;;;;;;2.57;2.37;;;;;;;11.78;32.35;99589.09;7052022;27;20311;-75
2023/04/03 12:46:49;;;;;;;3.07;2.53;;;;;;;10.88;35.68;99564.59;7052181;28;20262;-76
2023/04/03 12:50:23;;;;;;;3.00;2.53;;;;;;;11.42;36.16;99587.44;7051191;28;20211;-75
2023/04/03 12:53:46;;;;;;;2.93;2.30;;;;;;;11.76;34.50;99585.72;7074487;27;20247;-76
2023/04/03 12:57:12;;;;;;;4.50;2.97;;;;;;;11.07;35.17;99585.56;7080515;27;20624;-75
2023/04/03 13:00:38;;;;;;;2.63;2.23;;;;;;;11.51;34.06;99584.41;7062342;27;20200;-75
2023/04/03 13:04:00;;;;;;;3.27;2.50;;;;;;;11.81;34.05;99580.59;7052611;28;20227;-81
2023/04/03 13:07:25;;;;;;;3.93;3.10;;;;;;;11.11;34.00;99567.97;7056476;27;20204;-78
2023/04/03 13:10:55;;;;;;;3.73;2.50;;;;;;;12.69;32.16;99570.81;7050760;28;20714;-76
2023/04/03 13:14:19;;;;;;;2.90;2.30;;;;;;;13.43;31.75;99560.94;7061466;28;20709;-78
2023/04/03 13:17:42;;;;;;;2.50;2.30;;;;;;;13.09;31.47;99569.19;7053068;28;20211;-77
2023/04/03 13:21:06;;;;;;;3.10;2.30;;;;;;;12.87;30.47;99560.31;7065410;27;20283;-78
2023/04/03 13:24:29;;;;;;;2.73;2.50;;;;;;;13.63;29.05;99545.59;7074872;27;20308;-77
2023/04/03 13:27:52;;;;;;;2.70;2.50;;;;;;;12.93;29.79;99551.38;7078658;27;20214;-77
2023/04/03 13:31:20;;;;;;;2.87;2.47;;;;;;;12.42;30.56;99557.34;7079089;27;20244;-76
2023/04/03 13:34:43;;;;;;;2.50;2.30;;;;;;;12.89;30.26;99544.72;7075965;27;20220;-79
2023/04/03 13:38:21;;;;;;;2.40;2.27;;;;;;;11.21;32.77;99565.81;7055997;27;20688;-78
2023/04/03 13:41:44;;;;;;;2.60;2.23;;;;;;;11.76;32.56;99560.59;7078480;27;20199;-78
2023/04/03 13:45:22;;;;;;;2.73;2.50;;;;;;;11.31;33.71;99539.34;7079598;27;20537;-78
2023/04/03 13:48:46;;;;;;;3.20;2.60;;;;;;;13.04;31.96;99560.84;7080401;27;20199;-76
2023/04/03 13:52:23;;;;;;;2.60;2.40;;;;;;;12.19;31.64;99560.34;7051570;28;20253;-78
2023/04/03 13:55:57;;;;;;;5.17;2.37;;;;;;;11.39;32.05;99558.94;7052672;28;20279;-77
2023/04/03 13:59:24;;;;;;;5.17;2.90;;;;;;;11.86;31.17;99556.50;7051450;28;20200;-77
2023/04/03 14:02:48;;;;;;;2.70;2.50;;;;;;;11.39;31.66;99548.16;7053118;28;20219;-77
2023/04/03 14:06:12;;;;;;;3.10;2.80;;;;;;;12.93;31.74;99556.78;7070194;28;20268;-78
2023/04/03 14:09:33;;;;;;;2.87;2.60;;;;;;;14.01;30.10;99552.06;7078792;28;20206;-78
2023/04/03 14:12:55;;;;;;;4.37;2.80;;;;;;;12.66;31.25;99548.75;7079011;27;20628;-77
2023/04/03 14:16:20;;;;;;;5.80;2.80;;;;;;;12.40;31.76;99540.50;7074992;27;20688;-75
2023/04/03 14:19:43;;;;;;;3.23;2.80;;;;;;;11.75;32.99;99545.41;7084590;27;20203;-79
2023/04/03 14:23:04;;;;;;;2.70;2.50;;;;;;;12.40;32.12;99554.84;7084233;27;20300;-78
2023/04/03 14:26:27;;;;;;;4.00;2.90;;;;;;;11.10;33.73;99550.13;7084320;27;20295;-76
2023/04/03 14:29:49;;;;;;;3.07;2.43;;;;;;;11.19;32.77;99557.06;7078897;27;20230;-75
2023/04/03 14:33:14;;;;;;;3.93;3.00;;;;;;;12.55;32.22;99547.44;7084666;27;20715;-78
2023/04/03 14:36:38;;;;;;;3.17;2.37;;;;;;;12.36;30.66;99550.03;7085657;27;20191;-77
2023/04/03 14:40:02;;;;;;;4.00;2.63;;;;;;;12.80;32.10;99488.28;7084632;27;20314;-78
2023/04/03 14:43:24;;;;;;;3.60;3.00;;;;;;;12.15;32.52;99540.13;7088285;27;20216;-80
2023/04/03 14:46:46;;;;;;;3.80;2.43;;;;;;;12.86;31.60;99547.00;7086835;27;20693;-82
2023/04/03 14:50:08;;;;;;;7.03;2.53;;;;;;;13.15;31.30;99535.91;7085538;27;20306;-83
2023/04/03 14:53:32;;;;;;;4.67;2.80;;;;;;;11.76;32.25;99526.28;7086998;27;20760;-78
2023/04/03 14:56:54;;;;;;;4.20;2.53;;;;;;;13.07;32.03;99509.84;7083772;27;20241;-78
2023/04/03 15:00:17;;;;;;;3.93;2.80;;;;;;;12.70;30.30;99525.69;7067052;27;20796;-77
2023/04/03 15:03:39;;;;;;;3.60;2.53;;;;;;;10.59;32.73;99533.09;7055426;28;20225;-76
2023/04/03 15:07:00;;;;;;;2.60;2.40;;;;;;;11.51;32.41;99521.47;7054754;28;20295;-78
2023/04/03 15:10:25;;;;;;;4.33;2.80;;;;;;;12.97;30.08;99535.59;7054958;28;20294;-78
2023/04/03 15:13:47;;;;;;;2.80;2.60;;;;;;;11.99;30.78;99518.78;7069261;27;20239;-77
2023/04/03 15:17:13;;;;;;;2.57;2.30;;;;;;;11.78;31.46;99536.91;7076725;28;20211;-76
2023/04/03 15:20:35;;;;;;;5.33;2.60;;;;;;;12.03;32.71;99532.75;7059382;28;20214;-78
2023/04/03 15:23:56;;;;;;;3.10;2.50;;;;;;;13.45;30.62;99512.84;7089580;27;20809;-77
2023/04/03 15:27:19;;;;;;;3.00;2.70;;;;;;;13.34;30.18;99516.16;7085122;27;20256;-76
2023/04/03 15:30:41;;;;;;;3.43;2.40;;;;;;;13.27;28.99;99521.53;7080295;27;20220;-77
2023/04/03 15:34:04;;;;;;;2.87;2.67;;;;;;;12.83;28.81;99509.50;7080301;27;20223;-77
2023/04/03 15:37:25;;;;;;;5.17;3.57;;;;;;;13.10;30.41;99520.25;7080271;27;20203;-77
2023/04/03 15:40:47;;;;;;;2.97;2.70;;;;;;;13.69;29.10;99520.38;7079642;27;20686;-76
2023/04/03 15:44:11;;;;;;;4.63;2.80;;;;;;;11.35;29.81;99519.88;7081139;27;20223;-77
2023/04/03 15:47:33;;;;;;;2.43;2.23;;;;;;;12.06;30.07;99535.91;7082799;27;20215;-77
2023/04/03 15:50:55;;;;;;;3.10;2.90;;;;;;;12.24;30.26;99525.44;7082567;27;20708;-76
2023/04/03 15:54:16;;;;;;;5.97;2.60;;;;;;;11.11;30.75;99532.91;7069902;27;20323;-77
2023/04/03 15:57:38;;;;;;;3.70;2.70;;;;;;;12.97;29.72;99524.75;7068582;27;20232;-77
2023/04/03 16:01:01;;;;;;;2.53;2.33;;;;;;;13.25;28.48;99517.38;7065051;27;20204;-78
2023/04/03 16:04:22;;;;;;;3.70;2.37;;;;;;;13.46;27.71;99522.63;7078576;27;20294;-78
2023/04/03 16:07:44;;;;;;;3.30;3.00;;;;;;;11.69;29.10;99517.28;7082852;27;20259;-77